Time;durP1;ratioP1;P1;durP2;ratioP2;P2;SDS_P1;SDS_P2;PMS_P1;PMS_P2;Temp;Humidity;BMP_temperature;BMP_pressure;BME280_temperature;BME280_humidity;BME280_pressure;Samples;Min_cycle;Max_cycle;Signal;HPM_P1;HPM_P2
2024/01/18 00:01:03;;;;;;;56.85;19.95;;;1.70;99.90;;;;;;4877326;29;20037;-75
2024/01/18 00:03:32;;;;;;;52.28;18.42;;;1.80;99.90;;;;;;4864658;29;20053;-75
2024/01/18 00:06:00;;;;;;;47.80;17.88;;;1.40;99.90;;;;;;4878254;29;20048;-75
2024/01/18 00:08:29;;;;;;;50.60;18.25;;;1.80;99.90;;;;;;4863015;29;20057;-74
2024/01/18 00:11:01;;;;;;;50.17;18.25;;;1.80;99.90;;;;;;4868626;29;20033;-74
2024/01/18 00:13:30;;;;;;;51.67;17.95;;;1.40;99.90;;;;;;4887645;29;20045;-75
2024/01/18 00:15:59;;;;;;;53.35;17.60;;;1.80;99.90;;;;;;4891881;29;20041;-75
2024/01/18 00:18:27;;;;;;;58.55;18.52;;;1.90;99.90;;;;;;4885414;29;20044;-75
2024/01/18 00:20:57;;;;;;;58.83;20.67;;;1.20;99.90;;;;;;4888218;29;20084;-75
2024/01/18 00:23:25;;;;;;;61.85;20.92;;;1.90;99.90;;;;;;4872333;29;20052;-75
2024/01/18 00:25:54;;;;;;;54.63;19.58;;;1.90;99.90;;;;;;4859440;29;20088;-75
2024/01/18 00:28:24;;;;;;;57.50;19.90;;;1.90;99.90;;;;;;4874975;29;20084;-74
2024/01/18 00:30:53;;;;;;;55.30;18.25;;;1.90;99.90;;;;;;4864983;29;20057;-75
2024/01/18 00:33:22;;;;;;;53.83;18.95;;;2.00;99.90;;;;;;4865350;29;20049;-76
2024/01/18 00:35:51;;;;;;;50.92;16.83;;;2.00;99.90;;;;;;4863766;29;20036;-75
2024/01/18 00:38:20;;;;;;;54.47;17.83;;;2.20;99.90;;;;;;4875828;29;22453;-75
2024/01/18 00:40:49;;;;;;;45.42;15.57;;;2.70;99.90;;;;;;4861246;29;22011;-75
2024/01/18 00:43:20;;;;;;;54.72;17.73;;;2.10;99.90;;;;;;4860498;29;20045;-76
2024/01/18 00:45:50;;;;;;;55.22;19.13;;;2.30;99.90;;;;;;4867387;29;20037;-75
2024/01/18 00:48:19;;;;;;;51.20;18.58;;;2.00;99.90;;;;;;4856674;29;20105;-78
2024/01/18 00:50:48;;;;;;;52.58;17.67;;;2.70;99.90;;;;;;4859069;29;20404;-78
2024/01/18 00:53:16;;;;;;;47.65;17.15;;;2.50;99.90;;;;;;4839371;29;20052;-78
2024/01/18 00:55:44;;;;;;;46.35;16.33;;;2.10;99.90;;;;;;4838216;29;20132;-78
2024/01/18 00:58:13;;;;;;;52.50;18.83;;;2.00;99.90;;;;;;4838149;29;20068;-77
2024/01/18 01:00:41;;;;;;;47.17;17.83;;;2.10;99.90;;;;;;4853903;29;20286;-78
2024/01/18 01:03:11;;;;;;;54.58;19.13;;;2.00;99.90;;;;;;4838303;29;20053;-76
2024/01/18 01:05:39;;;;;;;53.83;20.85;;;2.00;99.90;;;;;;4855886;29;20097;-78
2024/01/18 01:08:08;;;;;;;53.80;21.00;;;2.00;99.90;;;;;;4856808;29;20060;-78
2024/01/18 01:10:36;;;;;;;55.00;20.55;;;2.00;99.90;;;;;;4855400;29;20064;-78
2024/01/18 01:13:05;;;;;;;56.78;19.38;;;2.00;99.90;;;;;;4856641;29;20055;-78
2024/01/18 01:15:33;;;;;;;52.08;20.20;;;2.10;99.90;;;;;;4867055;29;20068;-78
2024/01/18 01:18:03;;;;;;;53.20;19.83;;;2.00;99.90;;;;;;4844561;29;20523;-78
2024/01/18 01:20:33;;;;;;;48.75;17.85;;;2.00;99.90;;;;;;4861689;29;20100;-76
2024/01/18 01:23:01;;;;;;;49.40;18.48;;;2.10;99.90;;;;;;4853785;29;20048;-78
2024/01/18 01:25:29;;;;;;;55.22;20.25;;;2.10;99.90;;;;;;4886679;29;20050;-78
2024/01/18 01:27:58;;;;;;;53.08;19.83;;;2.00;99.90;;;;;;4855526;29;20061;-78
2024/01/18 01:30:26;;;;;;;50.72;19.85;;;2.10;99.90;;;;;;4847279;29;20081;-76
2024/01/18 01:32:54;;;;;;;49.92;17.55;;;2.20;99.90;;;;;;4868269;29;20044;-78
2024/01/18 01:35:24;;;;;;;48.28;17.02;;;2.20;99.90;;;;;;4837253;29;20053;-77
2024/01/18 01:37:53;;;;;;;48.28;18.88;;;2.20;99.90;;;;;;4851908;29;20057;-76
2024/01/18 01:40:22;;;;;;;47.45;17.92;;;2.20;99.90;;;;;;4835564;29;20061;-77
2024/01/18 01:42:50;;;;;;;53.78;19.23;;;2.20;99.90;;;;;;4840376;29;20076;-78
2024/01/18 01:45:18;;;;;;;48.28;18.25;;;2.10;99.90;;;;;;4841010;29;20061;-77
2024/01/18 01:47:47;;;;;;;48.92;19.27;;;2.10;99.90;;;;;;4856386;29;21053;-77
2024/01/18 01:50:15;;;;;;;47.10;18.63;;;2.10;99.90;;;;;;4841699;29;20061;-76
2024/01/18 01:52:45;;;;;;;46.78;15.93;;;2.20;99.90;;;;;;4855369;29;20836;-78
2024/01/18 01:55:15;;;;;;;46.70;18.10;;;2.20;99.90;;;;;;4854056;29;20144;-78
2024/01/18 01:57:45;;;;;;;47.45;18.65;;;2.20;99.90;;;;;;4836553;29;20064;-73
2024/01/18 02:00:15;;;;;;;52.17;18.20;;;2.30;99.90;;;;;;4853828;29;20049;-72
2024/01/18 02:02:45;;;;;;;51.58;18.20;;;2.30;99.90;;;;;;4838607;29;20057;-73
2024/01/18 02:05:14;;;;;;;61.88;22.10;;;2.50;99.90;;;;;;4855296;29;20052;-71
2024/01/18 02:07:43;;;;;;;47.03;19.92;;;2.30;99.90;;;;;;4838266;29;20093;-73
2024/01/18 02:10:12;;;;;;;48.83;17.88;;;2.30;99.90;;;;;;4865829;29;20063;-73
2024/01/18 02:12:43;;;;;;;41.75;16.17;;;2.30;99.90;;;;;;4845761;29;20184;-74
2024/01/18 02:15:12;;;;;;;51.95;18.10;;;2.40;99.90;;;;;;4840042;29;20094;-72
2024/01/18 02:17:40;;;;;;;50.10;18.02;;;2.50;99.90;;;;;;4852453;29;22838;-73
2024/01/18 02:20:09;;;;;;;46.50;17.48;;;2.40;99.90;;;;;;4851551;29;20049;-73
2024/01/18 02:22:42;;;;;;;43.80;17.42;;;2.30;99.90;;;;;;4847553;29;20056;-73
2024/01/18 02:25:29;;;;;;;48.70;17.13;;;2.40;99.90;;;;;;4855108;29;20052;-73
2024/01/18 02:27:59;;;;;;;43.75;16.23;;;2.40;99.90;;;;;;4864118;29;20187;-74
2024/01/18 02:30:27;;;;;;;29.73;11.45;;;2.30;99.90;;;;;;4840893;29;20072;-74
2024/01/18 02:32:55;;;;;;;29.67;11.18;;;2.50;99.90;;;;;;4845434;29;20053;-74
2024/01/18 02:35:24;;;;;;;26.52;10.30;;;2.70;99.90;;;;;;4832467;29;20057;-74
2024/01/18 02:37:53;;;;;;;18.77;8.60;;;3.00;99.90;;;;;;4854319;29;20081;-74
2024/01/18 02:40:21;;;;;;;18.85;7.50;;;3.50;99.90;;;;;;4842761;29;20121;-73
2024/01/18 02:42:51;;;;;;;24.52;7.03;;;3.80;99.90;;;;;;4838070;29;20049;-74
2024/01/18 02:45:20;;;;;;;17.92;6.50;;;3.90;99.90;;;;;;4842059;29;20057;-74
2024/01/18 02:47:47;;;;;;;16.88;6.50;;;4.10;99.90;;;;;;4831231;29;20050;-74
2024/01/18 02:50:16;;;;;;;16.52;7.32;;;4.10;99.90;;;;;;4841311;29;22596;-73
2024/01/18 02:52:44;;;;;;;11.50;5.35;;;4.10;99.90;;;;;;4832706;29;22710;-73
2024/01/18 02:55:13;;;;;;;12.52;5.55;;;4.30;99.90;;;;;;4840644;29;20176;-73
2024/01/18 02:57:41;;;;;;;13.32;5.63;;;4.30;99.90;;;;;;4851114;29;20056;-73
2024/01/18 03:00:12;;;;;;;14.80;5.85;;;4.40;99.90;;;;;;4840147;29;20054;-73
2024/01/18 03:02:41;;;;;;;12.80;5.80;;;4.30;99.90;;;;;;4834822;29;20486;-74
2024/01/18 03:05:09;;;;;;;14.35;6.55;;;4.20;99.90;;;;;;4846794;29;20049;-73
2024/01/18 03:07:38;;;;;;;15.18;6.00;;;4.20;99.90;;;;;;4848365;29;20597;-73
2024/01/18 03:10:08;;;;;;;14.00;5.60;;;4.40;99.90;;;;;;4830659;29;20064;-73
2024/01/18 03:12:37;;;;;;;16.23;6.45;;;4.50;99.90;;;;;;4832288;29;20917;-74
2024/01/18 03:15:09;;;;;;;16.83;6.50;;;4.50;99.90;;;;;;4841446;29;20057;-74
2024/01/18 03:17:39;;;;;;;19.38;6.05;;;4.50;99.90;;;;;;4832041;29;20060;-74
2024/01/18 03:20:09;;;;;;;14.77;6.70;;;4.40;99.90;;;;;;4841311;29;20205;-74
2024/01/18 03:22:39;;;;;;;15.75;5.55;;;4.80;99.90;;;;;;4832645;29;20061;-74
2024/01/18 03:25:08;;;;;;;12.10;4.80;;;4.90;99.90;;;;;;4840151;29;20052;-73
2024/01/18 03:27:36;;;;;;;17.65;6.95;;;4.70;99.90;;;;;;4840866;29;20057;-74
2024/01/18 03:30:07;;;;;;;11.07;5.53;;;4.80;99.90;;;;;;4844957;29;20092;-76
2024/01/18 03:32:35;;;;;;;14.93;5.85;;;4.90;99.90;;;;;;4856455;29;20056;-74
2024/01/18 03:35:07;;;;;;;14.00;5.68;;;5.00;99.90;;;;;;4851550;29;20053;-73
2024/01/18 03:37:36;;;;;;;16.33;5.90;;;5.10;99.90;;;;;;4845318;29;21144;-73
2024/01/18 03:40:08;;;;;;;17.88;6.90;;;5.20;99.90;;;;;;4843212;29;20053;-75
2024/01/18 03:42:41;;;;;;;14.00;6.70;;;5.20;99.90;;;;;;4841545;29;20752;-75
2024/01/18 03:45:10;;;;;;;20.20;7.88;;;5.20;99.90;;;;;;4844338;29;20060;-75
2024/01/18 03:47:38;;;;;;;19.67;7.68;;;5.30;99.90;;;;;;4857055;29;20729;-74
2024/01/18 03:50:09;;;;;;;28.17;9.90;;;5.30;99.90;;;;;;4842178;29;20160;-73
2024/01/18 03:52:37;;;;;;;21.52;8.57;;;5.30;99.90;;;;;;4868974;29;20801;-74
2024/01/18 03:55:06;;;;;;;27.88;10.38;;;5.30;99.90;;;;;;4878053;29;20586;-73
2024/01/18 03:57:35;;;;;;;23.83;9.80;;;5.30;99.90;;;;;;4844885;29;20057;-73
2024/01/18 04:00:04;;;;;;;18.85;7.65;;;5.20;99.90;;;;;;4863406;29;20049;-74
2024/01/18 04:02:35;;;;;;;22.33;9.10;;;5.30;99.90;;;;;;4856588;29;20060;-73
2024/01/18 04:05:04;;;;;;;20.92;8.20;;;5.20;99.90;;;;;;4856811;29;22644;-74
2024/01/18 04:07:35;;;;;;;25.35;9.65;;;5.20;99.90;;;;;;4857391;29;20120;-75
2024/01/18 04:10:04;;;;;;;26.00;9.55;;;5.40;99.90;;;;;;4839056;29;20068;-75
2024/01/18 04:12:33;;;;;;;23.25;8.30;;;5.20;99.90;;;;;;4862802;29;20136;-75
2024/01/18 04:15:01;;;;;;;20.80;8.63;;;5.30;99.90;;;;;;4864579;29;20695;-73
2024/01/18 04:17:30;;;;;;;20.48;9.13;;;5.10;99.90;;;;;;4855193;29;20143;-74
2024/01/18 04:19:58;;;;;;;22.20;8.98;;;5.20;99.90;;;;;;4854141;29;20056;-74
2024/01/18 04:22:26;;;;;;;25.38;8.30;;;5.10;99.90;;;;;;4856134;29;20572;-75
2024/01/18 04:24:57;;;;;;;28.38;8.23;;;5.10;99.90;;;;;;4843354;29;22496;-74
2024/01/18 04:27:25;;;;;;;21.63;9.43;;;5.10;99.90;;;;;;4850241;29;22686;-75
2024/01/18 04:29:54;;;;;;;24.60;9.38;;;4.90;99.90;;;;;;4867883;29;21077;-75
2024/01/18 04:32:22;;;;;;;23.33;8.93;;;4.90;99.90;;;;;;4844112;29;20049;-74
2024/01/18 04:34:51;;;;;;;23.60;9.00;;;5.00;99.90;;;;;;4853929;29;20049;-75
2024/01/18 04:37:19;;;;;;;27.23;10.38;;;5.10;99.90;;;;;;4848644;29;20065;-75
2024/01/18 04:39:48;;;;;;;20.48;9.07;;;5.10;99.90;;;;;;4846912;29;20056;-75
2024/01/18 04:42:17;;;;;;;21.92;9.15;;;5.20;99.90;;;;;;4862077;29;20051;-76
2024/01/18 04:44:46;;;;;;;24.80;9.52;;;5.00;99.90;;;;;;4849474;29;20168;-75
2024/01/18 04:47:14;;;;;;;27.73;9.88;;;5.00;99.90;;;;;;4843298;29;20116;-75
2024/01/18 04:49:43;;;;;;;32.95;10.43;;;5.10;99.90;;;;;;4864365;29;20137;-75
2024/01/18 04:52:11;;;;;;;24.35;10.05;;;4.90;99.90;;;;;;4853918;29;20859;-75
2024/01/18 04:54:39;;;;;;;25.83;9.00;;;5.00;99.90;;;;;;4852595;29;20099;-74
2024/01/18 04:57:08;;;;;;;29.95;11.20;;;5.00;99.90;;;;;;4838691;29;20049;-74
2024/01/18 04:59:38;;;;;;;25.27;9.98;;;4.90;99.90;;;;;;4837471;29;20065;-74
2024/01/18 05:02:07;;;;;;;28.42;11.38;;;4.90;99.90;;;;;;4854098;29;20059;-74
2024/01/18 05:04:35;;;;;;;28.65;10.13;;;4.90;99.90;;;;;;4838690;29;20175;-74
2024/01/18 05:07:04;;;;;;;22.55;7.78;;;5.00;99.90;;;;;;4837165;29;20085;-75
2024/01/18 05:09:32;;;;;;;27.00;10.10;;;4.80;99.90;;;;;;4856767;29;20528;-75
2024/01/18 05:12:01;;;;;;;26.48;9.93;;;4.80;99.90;;;;;;4852445;29;20061;-75
2024/01/18 05:14:29;;;;;;;31.52;11.15;;;4.70;99.90;;;;;;4837666;29;20095;-76
2024/01/18 05:17:05;;;;;;;25.50;10.93;;;4.70;99.90;;;;;;4858949;29;20045;-77
2024/01/18 05:19:33;;;;;;;31.75;11.13;;;4.80;99.90;;;;;;4847851;29;22608;-74
2024/01/18 05:22:02;;;;;;;29.02;9.48;;;4.80;99.90;;;;;;4856629;29;20081;-75
2024/01/18 05:24:30;;;;;;;27.17;9.23;;;4.80;99.90;;;;;;4849151;29;20148;-76
2024/01/18 05:26:59;;;;;;;26.00;10.15;;;4.70;99.90;;;;;;4839806;29;20061;-75
2024/01/18 05:29:28;;;;;;;31.90;10.80;;;4.80;99.90;;;;;;4838981;29;20069;-76
2024/01/18 05:31:56;;;;;;;30.73;10.70;;;4.90;99.90;;;;;;4837250;29;20625;-75
2024/01/18 05:34:26;;;;;;;32.17;10.85;;;4.80;99.90;;;;;;4851024;29;20809;-75
2024/01/18 05:36:55;;;;;;;26.00;10.05;;;4.80;99.90;;;;;;4848044;29;22663;-75
2024/01/18 05:39:25;;;;;;;30.58;10.70;;;4.90;99.90;;;;;;4836574;29;20472;-75
2024/01/18 05:41:54;;;;;;;31.30;10.02;;;4.80;99.90;;;;;;4846008;29;20084;-75
2024/01/18 05:44:22;;;;;;;33.05;10.07;;;4.60;99.90;;;;;;4842886;29;20175;-75
2024/01/18 05:46:51;;;;;;;22.98;8.88;;;4.70;99.90;;;;;;4853537;29;20052;-75
2024/01/18 05:49:19;;;;;;;24.45;9.45;;;4.70;99.90;;;;;;4855951;29;20216;-75
2024/01/18 05:51:49;;;;;;;23.40;8.93;;;4.70;99.90;;;;;;4848653;29;20080;-75
2024/01/18 05:54:18;;;;;;;26.60;10.20;;;4.70;99.90;;;;;;4836862;29;20115;-75
2024/01/18 05:56:47;;;;;;;31.20;9.60;;;4.70;99.90;;;;;;4847278;29;20098;-75
2024/01/18 05:59:15;;;;;;;23.27;9.70;;;4.70;99.90;;;;;;4848554;29;20060;-75
2024/01/18 06:01:44;;;;;;;24.30;10.00;;;4.70;99.90;;;;;;4840563;29;20056;-76
2024/01/18 06:04:13;;;;;;;22.55;9.48;;;4.80;99.90;;;;;;4860159;29;20075;-75
2024/01/18 06:06:41;;;;;;;24.45;9.07;;;4.70;99.90;;;;;;4857365;29;20057;-76
2024/01/18 06:09:14;;;;;;;22.70;9.48;;;4.70;99.90;;;;;;4860027;29;20061;-76
2024/01/18 06:11:42;;;;;;;21.48;9.43;;;4.70;99.90;;;;;;4856321;29;20123;-75
2024/01/18 06:14:11;;;;;;;26.25;9.57;;;4.70;99.90;;;;;;4844449;29;20060;-76
2024/01/18 06:16:39;;;;;;;22.98;9.70;;;4.70;99.90;;;;;;4853525;29;20399;-76
2024/01/18 06:19:08;;;;;;;27.27;9.93;;;4.60;99.90;;;;;;4855275;29;20061;-76
2024/01/18 06:21:36;;;;;;;25.38;9.75;;;4.60;99.90;;;;;;4861763;29;20052;-76
2024/01/18 06:24:06;;;;;;;27.75;9.55;;;4.60;99.90;;;;;;4869307;29;20568;-76
2024/01/18 06:26:36;;;;;;;20.25;8.18;;;4.60;99.90;;;;;;4860638;29;22059;-76
2024/01/18 06:29:05;;;;;;;26.23;9.65;;;4.60;99.90;;;;;;4872115;29;20147;-75
2024/01/18 06:31:33;;;;;;;22.92;10.32;;;4.70;99.90;;;;;;4841769;29;20067;-76
2024/01/18 06:34:01;;;;;;;31.65;11.63;;;4.60;99.90;;;;;;4859232;29;20061;-76
2024/01/18 06:36:30;;;;;;;29.95;11.82;;;4.60;99.90;;;;;;4842140;29;20061;-76
2024/01/18 06:38:59;;;;;;;25.08;11.23;;;4.60;99.90;;;;;;4843489;29;20053;-75
2024/01/18 06:41:27;;;;;;;30.45;10.00;;;4.60;99.90;;;;;;4852195;29;20135;-76
2024/01/18 06:43:57;;;;;;;25.33;9.75;;;4.60;99.90;;;;;;4842738;29;20067;-75
2024/01/18 06:46:25;;;;;;;26.33;9.93;;;4.60;99.90;;;;;;4855060;29;20052;-76
2024/01/18 06:48:54;;;;;;;23.17;9.13;;;4.80;99.90;;;;;;4847903;29;20068;-76
2024/01/18 06:51:23;;;;;;;24.73;9.40;;;4.70;99.90;;;;;;4829706;29;20242;-76
2024/01/18 06:53:51;;;;;;;24.50;8.73;;;4.70;99.90;;;;;;4822546;29;20189;-76
2024/01/18 06:56:20;;;;;;;23.85;8.80;;;4.70;99.90;;;;;;4839855;29;20052;-76
2024/01/18 06:58:48;;;;;;;18.95;8.27;;;4.80;99.90;;;;;;4839943;29;21273;-77
2024/01/18 07:01:23;;;;;;;21.17;7.90;;;4.80;99.90;;;;;;4837318;29;23295;-77
2024/01/18 07:03:56;;;;;;;20.30;7.82;;;4.90;99.90;;;;;;4871752;29;20096;-78
2024/01/18 07:06:25;;;;;;;22.42;8.43;;;4.90;99.90;;;;;;4825581;29;20206;-77
2024/01/18 07:08:53;;;;;;;21.73;8.60;;;4.90;99.90;;;;;;4834156;29;20420;-77
2024/01/18 07:11:22;;;;;;;20.67;8.13;;;4.90;99.90;;;;;;4857507;29;20066;-77
2024/01/18 07:13:50;;;;;;;21.60;8.52;;;5.00;99.90;;;;;;4837491;29;20060;-77
2024/01/18 07:16:20;;;;;;;23.00;9.15;;;5.00;99.90;;;;;;4836137;29;20056;-78
2024/01/18 07:18:49;;;;;;;22.42;8.57;;;5.00;99.90;;;;;;4826080;29;22227;-77
2024/01/18 07:21:18;;;;;;;24.27;10.13;;;4.90;99.90;;;;;;4818728;29;20528;-76
2024/01/18 07:23:46;;;;;;;23.70;9.70;;;4.90;99.90;;;;;;4824742;29;20584;-76
2024/01/18 07:26:15;;;;;;;21.17;9.00;;;4.90;99.90;;;;;;4821521;29;20076;-75
2024/01/18 07:28:43;;;;;;;22.73;9.18;;;4.90;99.90;;;;;;4846799;29;20128;-76
2024/01/18 07:31:12;;;;;;;23.83;8.88;;;5.00;99.90;;;;;;4843365;29;20980;-76
2024/01/18 07:33:41;;;;;;;23.75;8.88;;;5.00;99.90;;;;;;4830071;29;20144;-77
2024/01/18 07:36:11;;;;;;;22.17;8.50;;;5.00;99.90;;;;;;4844063;29;20060;-77
2024/01/18 07:38:39;;;;;;;26.65;8.95;;;5.00;99.90;;;;;;4837589;29;20912;-75
2024/01/18 07:41:07;;;;;;;24.83;8.82;;;5.00;99.90;;;;;;4852570;29;20708;-75
2024/01/18 07:43:36;;;;;;;21.95;9.68;;;5.00;99.90;;;;;;4835741;29;20155;-75
2024/01/18 07:46:04;;;;;;;25.08;8.45;;;5.10;99.90;;;;;;4826947;29;20547;-77
2024/01/18 07:48:33;;;;;;;22.00;7.45;;;5.10;99.90;;;;;;4840763;29;20104;-76
2024/01/18 07:51:03;;;;;;;20.00;8.38;;;5.20;99.90;;;;;;4836657;29;20052;-75
2024/01/18 07:53:31;;;;;;;20.13;8.30;;;5.20;99.90;;;;;;4822019;29;20433;-75
2024/01/18 07:56:00;;;;;;;19.25;8.68;;;5.20;99.90;;;;;;4859389;29;20049;-76
2024/01/18 07:58:28;;;;;;;22.50;9.38;;;5.30;99.90;;;;;;4840654;29;20044;-75
2024/01/18 08:00:57;;;;;;;18.58;8.13;;;5.30;99.90;;;;;;4836481;29;20048;-75
2024/01/18 08:03:27;;;;;;;22.08;8.27;;;5.30;99.90;;;;;;4836179;29;22172;-77
2024/01/18 08:05:56;;;;;;;23.48;8.27;;;5.40;99.90;;;;;;4846013;29;20053;-76
2024/01/18 08:08:29;;;;;;;20.10;8.73;;;5.60;99.90;;;;;;4853010;29;20059;-77
2024/01/18 08:10:57;;;;;;;21.83;8.63;;;5.50;99.90;;;;;;4848511;29;20052;-76
2024/01/18 08:13:26;;;;;;;21.38;8.73;;;5.60;99.90;;;;;;4849232;29;20052;-77
2024/01/18 08:15:56;;;;;;;18.35;7.63;;;5.50;99.90;;;;;;4840091;29;20060;-76
2024/01/18 08:18:25;;;;;;;18.25;7.78;;;5.60;99.90;;;;;;4831284;29;20060;-77
2024/01/18 08:20:54;;;;;;;21.33;8.25;;;5.60;99.90;;;;;;4824367;29;20052;-75
2024/01/18 08:23:23;;;;;;;24.92;8.25;;;5.70;99.90;;;;;;4837147;29;20771;-74
2024/01/18 08:25:53;;;;;;;24.77;8.85;;;5.60;99.90;;;;;;4826534;29;20080;-77
2024/01/18 08:28:21;;;;;;;20.88;7.97;;;5.50;99.90;;;;;;4821482;29;20060;-73
2024/01/18 08:30:50;;;;;;;18.65;6.63;;;5.60;99.90;;;;;;4831971;29;20923;-75
2024/01/18 08:33:20;;;;;;;19.83;8.10;;;5.60;99.90;;;;;;4834275;29;22292;-77
2024/01/18 08:35:48;;;;;;;17.33;7.65;;;5.70;99.90;;;;;;4822414;29;20064;-75
2024/01/18 08:38:17;;;;;;;23.13;9.15;;;5.60;99.90;;;;;;4816739;29;20052;-75
2024/01/18 08:40:45;;;;;;;20.83;8.07;;;5.70;99.90;;;;;;4837361;29;20061;-75
2024/01/18 08:43:15;;;;;;;22.45;8.55;;;5.70;99.90;;;;;;4837160;29;20167;-75
2024/01/18 08:45:43;;;;;;;23.52;11.77;;;5.70;99.90;;;;;;4836204;29;20857;-74
2024/01/18 08:48:12;;;;;;;31.60;14.73;;;5.70;99.90;;;;;;4835505;29;20809;-75
2024/01/18 08:50:40;;;;;;;27.73;11.45;;;5.80;99.90;;;;;;4838052;29;20053;-75
2024/01/18 08:53:09;;;;;;;28.02;10.60;;;5.80;99.90;;;;;;4836099;29;20067;-75
2024/01/18 08:55:38;;;;;;;26.20;9.88;;;5.80;99.90;;;;;;4833115;29;20115;-74
2024/01/18 08:58:07;;;;;;;24.92;9.65;;;5.90;99.90;;;;;;4841987;29;20109;-77
2024/01/18 09:00:38;;;;;;;25.55;10.20;;;5.90;99.90;;;;;;4842977;29;20805;-77
2024/01/18 09:03:07;;;;;;;26.33;10.13;;;5.90;99.90;;;;;;4830833;29;20195;-76
2024/01/18 09:05:35;;;;;;;49.00;20.33;;;5.80;99.90;;;;;;4843068;29;20159;-77
2024/01/18 09:08:04;;;;;;;41.60;17.33;;;5.90;99.90;;;;;;4826009;29;20469;-77
2024/01/18 09:10:34;;;;;;;35.55;16.67;;;5.90;99.90;;;;;;4845815;29;20056;-77
2024/01/18 09:13:02;;;;;;;46.15;18.63;;;5.90;99.90;;;;;;4832220;29;20175;-74
2024/01/18 09:15:31;;;;;;;50.03;20.58;;;5.90;99.90;;;;;;4816111;29;20057;-74
2024/01/18 09:18:01;;;;;;;44.75;18.65;;;5.90;99.90;;;;;;4836005;29;20800;-74
2024/01/18 09:20:29;;;;;;;49.25;19.38;;;5.80;99.90;;;;;;4831034;29;20603;-73
2024/01/18 09:22:58;;;;;;;42.47;17.30;;;5.80;99.90;;;;;;4842169;29;20060;-79
2024/01/18 09:25:40;;;;;;;32.70;14.93;;;5.80;99.90;;;;;;4859385;29;20124;-78
2024/01/18 09:28:09;;;;;;;35.72;15.80;;;5.80;99.90;;;;;;4867424;29;20140;-79
2024/01/18 09:30:38;;;;;;;33.03;14.30;;;5.80;99.90;;;;;;4846612;29;20061;-78
2024/01/18 09:33:13;;;;;;;38.38;15.75;;;5.70;99.90;;;;;;4846545;29;22753;-77
2024/01/18 09:35:42;;;;;;;36.92;16.02;;;5.80;99.90;;;;;;4851035;29;20055;-74
2024/01/18 09:38:11;;;;;;;35.70;15.57;;;5.90;99.90;;;;;;4825578;29;20052;-75
2024/01/18 09:40:40;;;;;;;37.47;15.30;;;6.00;99.90;;;;;;4834054;29;20049;-75
2024/01/18 09:43:11;;;;;;;31.02;13.20;;;5.90;99.90;;;;;;4845490;29;20052;-78
2024/01/18 09:45:48;;;;;;;39.95;14.48;;;5.80;99.90;;;;;;4852498;29;20056;-74
2024/01/18 09:48:19;;;;;;;42.97;18.25;;;5.80;99.90;;;;;;4800459;29;20057;-78
2024/01/18 09:50:52;;;;;;;43.03;20.13;;;5.90;99.90;;;;;;4830484;29;20059;-75
2024/01/18 09:53:20;;;;;;;49.42;21.90;;;6.00;99.90;;;;;;4832744;29;20064;-74
2024/01/18 09:55:53;;;;;;;58.33;23.52;;;5.90;99.90;;;;;;4849389;29;20052;-79
2024/01/18 09:58:31;;;;;;;50.15;21.17;;;5.90;99.90;;;;;;4862304;29;20129;-75
2024/01/18 10:01:07;;;;;;;50.05;21.95;;;5.90;99.90;;;;;;4849037;29;20428;-79
2024/01/18 10:03:38;;;;;;;47.85;20.70;;;5.50;99.90;;;;;;4867400;29;20061;-81
2024/01/18 10:06:07;;;;;;;56.22;22.10;;;6.00;99.90;;;;;;4877112;29;20057;-77
2024/01/18 10:08:36;;;;;;;62.65;26.13;;;6.00;99.90;;;;;;4876300;29;20133;-81
2024/01/18 10:11:05;;;;;;;57.38;25.73;;;5.70;99.90;;;;;;4861920;29;20072;-79
2024/01/18 10:13:51;;;;;;;62.15;25.85;;;5.50;99.90;;;;;;4860435;29;20056;-79
2024/01/18 10:16:29;;;;;;;62.90;24.75;;;6.20;99.90;;;;;;4860788;29;20084;-81
2024/01/18 10:19:01;;;;;;;61.50;23.98;;;6.30;99.90;;;;;;4863051;29;20049;-80
2024/01/18 10:21:33;;;;;;;;;;;6.60;99.90;;;;;;4859265;29;20072;-80
2024/01/18 10:24:03;;;;;;;49.78;21.33;;;6.90;99.90;;;;;;4868810;29;19932;-81
2024/01/18 10:26:33;;;;;;;63.83;26.08;;;6.40;99.90;;;;;;4869791;29;20049;-82
2024/01/18 10:29:01;;;;;;;98.07;41.03;;;6.50;99.90;;;;;;4884948;29;20057;-82
2024/01/18 10:31:32;;;;;;;71.03;30.60;;;6.40;99.90;;;;;;4859779;29;20057;-79
2024/01/18 10:47:24;;;;;;;30.65;13.88;;;6.50;99.90;;;;;;6208573;22;1344660;-83
2024/01/18 10:49:55;;;;;;;31.20;14.40;;;6.70;99.90;;;;;;6289628;22;20075;-82
2024/01/18 10:52:27;;;;;;;29.75;12.45;;;6.80;99.90;;;;;;6264058;23;20024;-80
2024/01/18 10:54:57;;;;;;;43.03;14.00;;;6.70;99.90;;;;;;6260524;22;20016;-78
2024/01/18 10:57:36;;;;;;;30.60;12.23;;;6.90;99.90;;;;;;6261061;22;20031;-79
2024/01/18 11:00:07;;;;;;;31.25;11.77;;;6.90;99.90;;;;;;6261374;23;20020;-80
2024/01/18 11:02:42;;;;;;;30.85;12.15;;;6.90;99.90;;;;;;6259038;23;20500;-80
2024/01/18 11:05:14;;;;;;;34.28;14.13;;;5.80;99.90;;;;;;6262823;22;20042;-82
2024/01/18 11:07:42;;;;;;;31.38;13.25;;;6.90;99.90;;;;;;6258854;23;20040;-79
2024/01/18 11:10:12;;;;;;;40.55;15.60;;;7.00;99.90;;;;;;6261995;23;20024;-80
2024/01/18 11:12:42;;;;;;;33.15;14.48;;;7.10;99.90;;;;;;6259189;23;20027;-80
2024/01/18 11:15:15;;;;;;;34.45;15.05;;;7.00;99.90;;;;;;6263867;23;20084;-80
2024/01/18 11:17:47;;;;;;;36.38;14.15;;;7.10;99.90;;;;;;6258847;23;20035;-78
2024/01/18 11:20:16;;;;;;;37.90;15.48;;;7.00;99.90;;;;;;6242696;23;20070;-77
2024/01/18 11:22:46;;;;;;;37.97;16.90;;;6.90;99.90;;;;;;6238186;23;20036;-76
2024/01/18 11:25:19;;;;;;;39.28;17.50;;;7.00;99.90;;;;;;6238049;23;20069;-78
2024/01/18 11:27:48;;;;;;;44.38;17.65;;;7.00;99.90;;;;;;6240960;23;20020;-74
2024/01/18 11:30:36;;;;;;;42.50;18.27;;;7.00;99.90;;;;;;6237270;23;20034;-76
2024/01/18 11:33:07;;;;;;;45.22;16.95;;;7.10;99.90;;;;;;6238397;23;20688;-76
2024/01/18 11:35:36;;;;;;;50.50;19.17;;;7.10;99.90;;;;;;6242578;23;20016;-76
2024/01/18 11:38:20;;;;;;;42.28;18.63;;;7.10;99.90;;;;;;6237148;23;20027;-76
2024/01/18 11:40:52;;;;;;;42.55;17.30;;;7.10;99.90;;;;;;6233779;23;20076;-76
2024/01/18 11:43:21;;;;;;;40.45;17.25;;;7.00;99.90;;;;;;6237876;22;20028;-76
2024/01/18 11:45:50;;;;;;;47.55;19.15;;;7.00;99.90;;;;;;6236004;23;20523;-76
2024/01/18 11:48:20;;;;;;;36.17;15.55;;;7.00;99.90;;;;;;6231961;23;20128;-76
2024/01/18 11:50:49;;;;;;;38.55;15.93;;;6.90;99.90;;;;;;6229606;23;20028;-77
2024/01/18 11:53:19;;;;;;;49.03;17.67;;;7.00;99.90;;;;;;6233468;23;20024;-76
2024/01/18 11:55:51;;;;;;;49.58;18.23;;;7.00;99.90;;;;;;6237780;23;20035;-77
2024/01/18 11:58:20;;;;;;;50.05;17.30;;;7.00;99.90;;;;;;6208893;23;20024;-78
2024/01/18 12:00:49;;;;;;;44.60;17.08;;;7.00;99.90;;;;;;6230782;23;20028;-77
2024/01/18 12:03:18;;;;;;;45.13;18.85;;;7.00;99.90;;;;;;6232023;22;20516;-76
2024/01/18 12:05:48;;;;;;;45.22;19.00;;;6.90;99.90;;;;;;6229949;23;20086;-77
2024/01/18 12:08:16;;;;;;;54.20;20.50;;;6.90;99.90;;;;;;6231763;22;20072;-77
2024/01/18 12:10:45;;;;;;;71.95;26.65;;;6.90;99.90;;;;;;6229227;23;20090;-76
2024/01/18 12:13:17;;;;;;;58.20;23.17;;;6.90;99.90;;;;;;6228488;23;20369;-76
2024/01/18 12:15:46;;;;;;;62.25;23.42;;;6.90;99.90;;;;;;6230877;22;20016;-76
2024/01/18 12:18:15;;;;;;;60.42;24.02;;;6.90;99.90;;;;;;6229886;23;20028;-76
2024/01/18 12:20:44;;;;;;;54.90;25.10;;;6.80;99.90;;;;;;6229613;23;20028;-76
2024/01/18 12:23:17;;;;;;;50.15;21.77;;;6.90;99.90;;;;;;6231235;23;20086;-77
2024/01/18 12:25:45;;;;;;;49.97;21.13;;;6.70;99.90;;;;;;6229122;23;20066;-76
2024/01/18 12:28:14;;;;;;;89.25;29.70;;;6.80;99.90;;;;;;6235509;22;20108;-77
2024/01/18 12:30:43;;;;;;;69.78;29.02;;;6.70;99.90;;;;;;6249499;23;20023;-80
2024/01/18 12:33:14;;;;;;;99.50;33.47;;;6.80;99.90;;;;;;6249063;22;20118;-79
2024/01/18 12:35:46;;;;;;;101.30;34.28;;;6.80;99.90;;;;;;6251100;23;20594;-77
2024/01/18 12:38:16;;;;;;;64.43;25.42;;;6.70;99.90;;;;;;6245615;23;20122;-78
2024/01/18 12:40:44;;;;;;;47.50;22.83;;;6.80;99.90;;;;;;6247550;23;20104;-79
2024/01/18 12:43:13;;;;;;;80.25;29.88;;;6.60;99.90;;;;;;6247571;23;20055;-79
2024/01/18 12:45:42;;;;;;;81.95;31.38;;;6.70;99.90;;;;;;6245900;23;20051;-77
2024/01/18 12:48:11;;;;;;;73.82;30.65;;;6.70;99.90;;;;;;6252031;22;20031;-77
2024/01/18 12:50:41;;;;;;;73.40;28.83;;;6.70;99.90;;;;;;6250191;23;20046;-77
2024/01/18 12:53:10;;;;;;;67.45;27.75;;;6.80;99.90;;;;;;6246233;23;20020;-77
2024/01/18 12:55:40;;;;;;;52.38;23.13;;;6.60;99.90;;;;;;6247638;23;20020;-78
2024/01/18 12:58:12;;;;;;;49.90;23.52;;;6.80;99.90;;;;;;6248309;23;20020;-78
2024/01/18 13:00:41;;;;;;;64.15;29.23;;;7.50;99.90;;;;;;6252078;23;20027;-78
2024/01/18 13:03:13;;;;;;;88.85;40.30;;;6.70;99.90;;;;;;6250718;23;20020;-79
2024/01/18 13:05:45;;;;;;;98.63;41.10;;;6.70;99.90;;;;;;6254620;23;20028;-77